Black River (Missouri), Leeper (07062500)

StateMissouriLatestHigh (1720 cfs)
RiverBlack RiverRatingObservedEstimated
Updated2020-08-06 9:30 (1 hour ago)Flood - The river is flooding. Obstacles can be treacherous or deadly. The river should be avoided at this stage for casual trips and definitely for the inexperienced. Trips should be attempted only with protective gear and equipment.Flood(none)3460
Discharge1720 cfs (median: 343 cfs)High - The river is high and potentially dangerous, especially for the young and / or inexperienced. Normal stream obstacles are sometimes difficult to navigate. Extended distances can be attempted, but canoe travel may not be advisable.High(none)1125
Height4.87 feetGood - Conditions are ideal for a canoe or kayak. Boats typically will drag on fewer than one-quarter of riffles, if at all, and portages are unnecessary or rare. Normal float lengths can be attempted without a problem.Good(none)691
TrendRising (rising over 24 hours)Low - River is low but can still be floated. Some riffles are okay but most come with significant dragging and might need a portage. Float lengths should be reduced to accommodate low flow, dragging, and portages.Low(none)413
USGSExternal icon USGS Site (External icon Google Maps)Poor - River is too low to float comfortably. Most or all riffles will drag or must be portaged and some obstacles (such as slick shelf rock) cause undue problems. Avoid the river at this stage for casual paddling trips.Poor(none)218

Trending Data

Plot Image

Trips for Black River (Missouri), Leeper (07062500)

DateStartEndDistanceConditionDischargeHeightFishingDetails

A total of 0 rows are displayed.

Condition Descriptions

Fishing Conditions

Fish Species

Notes

Classic Trip List

The classic River Trips application is still available for use. It is updated with the new system using a data retrofit. It is no longer maintained. The original River Trips application is no longer updated (as of 1 Dec 2016) but can be checked for errors or for the condition of the data before it was converted to the new system.

Gauge Data Table

ObservationHeightDischargeMaximum
Discharge
Minimum
Discharge
Mean
Discharge
P05P10P20P25P50
(Median)
P75P80P90P95
2020-08-06 09:30 4.87 1720 3360 (1951) 203 (1954) 553 220 231 253 258 343 503 550 1220 2020
2020-08-06 08:30 4.86 1710 3360 (1951) 203 (1954) 553 220 231 253 258 343 503 550 1220 2020
2020-08-06 07:30 4.87 1720 3360 (1951) 203 (1954) 553 220 231 253 258 343 503 550 1220 2020
2020-08-06 06:30 4.87 1720 3360 (1951) 203 (1954) 553 220 231 253 258 343 503 550 1220 2020
2020-08-06 05:30 4.86 1710 3360 (1951) 203 (1954) 553 220 231 253 258 343 503 550 1220 2020
2020-08-06 04:30 4.84 1700 3360 (1951) 203 (1954) 553 220 231 253 258 343 503 550 1220 2020
2020-08-06 03:30 4.84 1700 3360 (1951) 203 (1954) 553 220 231 253 258 343 503 550 1220 2020
2020-08-06 02:30 4.83 1690 3360 (1951) 203 (1954) 553 220 231 253 258 343 503 550 1220 2020
2020-08-06 01:30 4.81 1680 3360 (1951) 203 (1954) 553 220 231 253 258 343 503 550 1220 2020
2020-08-06 00:30 4.80 1670 3360 (1951) 203 (1954) 553 220 231 253 258 343 503 550 1220 2020
2020-08-05 23:30 4.74 1630 3280 (1951) 194 (1954) 546 220 230 255 270 337 466 517 1210 1960
2020-08-05 22:30 4.70 1610 3280 (1951) 194 (1954) 546 220 230 255 270 337 466 517 1210 1960
2020-08-05 21:30 4.65 1570 3280 (1951) 194 (1954) 546 220 230 255 270 337 466 517 1210 1960
2020-08-05 20:30 4.58 1530 3280 (1951) 194 (1954) 546 220 230 255 270 337 466 517 1210 1960
2020-08-05 19:30 4.51 1490 3280 (1951) 194 (1954) 546 220 230 255 270 337 466 517 1210 1960
2020-08-05 18:30 4.49 1470 3280 (1951) 194 (1954) 546 220 230 255 270 337 466 517 1210 1960
2020-08-05 17:30 4.48 1470 3280 (1951) 194 (1954) 546 220 230 255 270 337 466 517 1210 1960
2020-08-05 16:30 4.48 1470 3280 (1951) 194 (1954) 546 220 230 255 270 337 466 517 1210 1960
2020-08-05 15:30 4.48 1470 3280 (1951) 194 (1954) 546 220 230 255 270 337 466 517 1210 1960
2020-08-05 14:30 4.48 1470 3280 (1951) 194 (1954) 546 220 230 255 270 337 466 517 1210 1960
2020-08-05 13:30 4.47 1460 3280 (1951) 194 (1954) 546 220 230 255 270 337 466 517 1210 1960
2020-08-05 12:30 4.47 1460 3280 (1951) 194 (1954) 546 220 230 255 270 337 466 517 1210 1960
2020-08-05 11:30 4.49 1470 3280 (1951) 194 (1954) 546 220 230 255 270 337 466 517 1210 1960
2020-08-05 10:30 4.48 1470 3280 (1951) 194 (1954) 546 220 230 255 270 337 466 517 1210 1960
2020-08-05 09:30 4.47 1460 3280 (1951) 194 (1954) 546 220 230 255 270 337 466 517 1210 1960
2020-08-05 08:30 4.48 1470 3280 (1951) 194 (1954) 546 220 230 255 270 337 466 517 1210 1960
2020-08-05 07:30 4.47 1460 3280 (1951) 194 (1954) 546 220 230 255 270 337 466 517 1210 1960
2020-08-05 06:30 4.49 1470 3280 (1951) 194 (1954) 546 220 230 255 270 337 466 517 1210 1960
2020-08-05 05:30 4.48 1470 3280 (1951) 194 (1954) 546 220 230 255 270 337 466 517 1210 1960
2020-08-05 04:30 4.47 1460 3280 (1951) 194 (1954) 546 220 230 255 270 337 466 517 1210 1960
2020-08-05 03:30 4.46 1460 3280 (1951) 194 (1954) 546 220 230 255 270 337 466 517 1210 1960
2020-08-05 02:30 4.47 1460 3280 (1951) 194 (1954) 546 220 230 255 270 337 466 517 1210 1960
2020-08-05 01:30 4.46 1460 3280 (1951) 194 (1954) 546 220 230 255 270 337 466 517 1210 1960
2020-08-05 00:30 4.46 1460 3280 (1951) 194 (1954) 546 220 230 255 270 337 466 517 1210 1960
2020-08-04 23:30 4.47 1460 3340 (1957) 186 (1954) 535 219 224 253 265 338 450 498 1200 1980
2020-08-04 22:30 4.45 1450 3340 (1957) 186 (1954) 535 219 224 253 265 338 450 498 1200 1980
2020-08-04 21:30 4.43 1440 3340 (1957) 186 (1954) 535 219 224 253 265 338 450 498 1200 1980
2020-08-04 20:30 4.43 1440 3340 (1957) 186 (1954) 535 219 224 253 265 338 450 498 1200 1980
2020-08-04 19:30 4.43 1440 3340 (1957) 186 (1954) 535 219 224 253 265 338 450 498 1200 1980
2020-08-04 18:30 4.43 1440 3340 (1957) 186 (1954) 535 219 224 253 265 338 450 498 1200 1980
2020-08-04 17:30 4.39 1410 3340 (1957) 186 (1954) 535 219 224 253 265 338 450 498 1200 1980
2020-08-04 16:30 4.38 1410 3340 (1957) 186 (1954) 535 219 224 253 265 338 450 498 1200 1980
2020-08-04 15:30 4.35 1390 3340 (1957) 186 (1954) 535 219 224 253 265 338 450 498 1200 1980
2020-08-04 14:30 4.32 1370 3340 (1957) 186 (1954) 535 219 224 253 265 338 450 498 1200 1980
2020-08-04 13:30 4.28 1350 3340 (1957) 186 (1954) 535 219 224 253 265 338 450 498 1200 1980
2020-08-04 12:30 4.22 1310 3340 (1957) 186 (1954) 535 219 224 253 265 338 450 498 1200 1980
2020-08-04 11:30 4.15 1270 3340 (1957) 186 (1954) 535 219 224 253 265 338 450 498 1200 1980
2020-08-04 10:30 4.14 1270 3340 (1957) 186 (1954) 535 219 224 253 265 338 450 498 1200 1980
2020-08-04 09:30 4.12 1250 3340 (1957) 186 (1954) 535 219 224 253 265 338 450 498 1200 1980
2020-08-04 08:30 4.12 1250 3340 (1957) 186 (1954) 535 219 224 253 265 338 450 498 1200 1980
2020-08-04 07:30 4.12 1250 3340 (1957) 186 (1954) 535 219 224 253 265 338 450 498 1200 1980
2020-08-04 06:30 4.12 1250 3340 (1957) 186 (1954) 535 219 224 253 265 338 450 498 1200 1980
2020-08-04 05:30 4.11 1250 3340 (1957) 186 (1954) 535 219 224 253 265 338 450 498 1200 1980
2020-08-04 04:30 4.11 1250 3340 (1957) 186 (1954) 535 219 224 253 265 338 450 498 1200 1980
2020-08-04 03:30 4.11 1250 3340 (1957) 186 (1954) 535 219 224 253 265 338 450 498 1200 1980
2020-08-04 02:30 4.11 1250 3340 (1957) 186 (1954) 535 219 224 253 265 338 450 498 1200 1980
2020-08-04 01:30 4.09 1240 3340 (1957) 186 (1954) 535 219 224 253 265 338 450 498 1200 1980
2020-08-04 00:30 4.08 1230 3340 (1957) 186 (1954) 535 219 224 253 265 338 450 498 1200 1980
2020-08-03 23:30 4.08 1230 3280 (1951) 188 (1954) 560 213 226 252 267 341 483 551 1230 2000
2020-08-03 22:30 4.06 1220 3280 (1951) 188 (1954) 560 213 226 252 267 341 483 551 1230 2000
2020-08-03 21:30 4.05 1210 3280 (1951) 188 (1954) 560 213 226 252 267 341 483 551 1230 2000
2020-08-03 20:30 4.03 1200 3280 (1951) 188 (1954) 560 213 226 252 267 341 483 551 1230 2000
2020-08-03 19:30 4.02 1200 3280 (1951) 188 (1954) 560 213 226 252 267 341 483 551 1230 2000
2020-08-03 18:30 3.96 1160 3280 (1951) 188 (1954) 560 213 226 252 267 341 483 551 1230 2000
2020-08-03 17:30 3.94 1150 3280 (1951) 188 (1954) 560 213 226 252 267 341 483 551 1230 2000
2020-08-03 16:30 3.87 1110 3280 (1951) 188 (1954) 560 213 226 252 267 341 483 551 1230 2000
2020-08-03 15:30 3.80 1070 3280 (1951) 188 (1954) 560 213 226 252 267 341 483 551 1230 2000
2020-08-03 14:30 3.70 1020 3280 (1951) 188 (1954) 560 213 226 252 267 341 483 551 1230 2000
2020-08-03 13:30 3.59 962 3280 (1951) 188 (1954) 560 213 226 252 267 341 483 551 1230 2000
2020-08-03 12:30 3.43 880 3280 (1951) 188 (1954) 560 213 226 252 267 341 483 551 1230 2000
2020-08-03 11:30 3.28 806 3280 (1951) 188 (1954) 560 213 226 252 267 341 483 551 1230 2000
2020-08-03 10:30 3.16 748 3280 (1951) 188 (1954) 560 213 226 252 267 341 483 551 1230 2000
2020-08-03 09:30 3.15 744 3280 (1951) 188 (1954) 560 213 226 252 267 341 483 551 1230 2000
2020-08-03 08:30 3.13 734 3280 (1951) 188 (1954) 560 213 226 252 267 341 483 551 1230 2000
2020-08-03 07:30 3.14 739 3280 (1951) 188 (1954) 560 213 226 252 267 341 483 551 1230 2000
2020-08-03 06:30 3.14 739 3280 (1951) 188 (1954) 560 213 226 252 267 341 483 551 1230 2000
2020-08-03 05:30 3.14 739 3280 (1951) 188 (1954) 560 213 226 252 267 341 483 551 1230 2000
2020-08-03 04:30 3.14 739 3280 (1951) 188 (1954) 560 213 226 252 267 341 483 551 1230 2000
2020-08-03 03:30 3.15 744 3280 (1951) 188 (1954) 560 213 226 252 267 341 483 551 1230 2000
2020-08-03 02:30 3.15 744 3280 (1951) 188 (1954) 560 213 226 252 267 341 483 551 1230 2000
2020-08-03 01:30 3.14 739 3280 (1951) 188 (1954) 560 213 226 252 267 341 483 551 1230 2000
2020-08-03 00:30 3.15 744 3280 (1951) 188 (1954) 560 213 226 252 267 341 483 551 1230 2000

A total of 82 rows are displayed for years 1949 through 2019.